Aspinwall, Iowa
Current Conditions -  °F | °C
As of 6:35 AM on Monday 22 Dec 2014 (Local Time) from KDNS Reporting Station
Haze Haze  
Wind Chill: 33°   Ceiling: 600
Heat Index: 41°   Visibility: 4mi
Dew Point: 41°   Wind: 14mph
Humidity: 100%   Direction: 160°SSE
Pressure: 29.54"   Gusts: 21mph
Location:  41.91°N, 95.14°W
Report Text: KDNS 221235Z AUTO 16012G18KT 4SM BR OVC006 05/05 A2954 RMK AO2
Loading
Personal Weather Stations






























Interactive Weather Map New forecast layout! Learn more

10-Day Weather Forecast

Advertisements
Track Severe Weather on mobile